createdAt,value
2022-12-07T00:00:03.151Z,99.9
2022-12-07T00:02:00.482Z,99.9
2022-12-07T00:03:58.016Z,99.9
2022-12-07T00:06:03.451Z,99.9
2022-12-07T00:08:01.082Z,99.9
2022-12-07T00:11:56.104Z,99.9
2022-12-07T00:13:53.665Z,99.9
2022-12-07T00:15:51.225Z,99.9
2022-12-07T00:17:48.790Z,99.9
2022-12-07T00:19:54.231Z,99.9
2022-12-07T00:21:51.774Z,99.9
2022-12-07T00:23:49.356Z,99.9
2022-12-07T00:25:46.907Z,99.9
2022-12-07T00:27:44.451Z,99.9
2022-12-07T00:29:42.021Z,99.9
2022-12-07T00:31:39.718Z,99.9
2022-12-07T00:33:45.042Z,99.9
2022-12-07T00:35:42.600Z,99.9
2022-12-07T00:37:40.180Z,99.9
2022-12-07T00:38:42.881Z,99.9
2022-12-07T00:46:40.990Z,99.9
2022-12-07T00:50:36.097Z,99.9
2022-12-07T00:52:33.680Z,99.9
2022-12-07T00:54:31.217Z,99.9
2022-12-07T00:56:28.778Z,99.9
2022-12-07T00:58:26.322Z,99.9
2022-12-07T01:00:31.756Z,99.9
2022-12-07T01:02:29.326Z,99.9
2022-12-07T01:04:26.881Z,99.9
2022-12-07T01:06:24.427Z,99.9
2022-12-07T01:08:22.097Z,99.9
2022-12-07T01:10:19.491Z,99.9
2022-12-07T01:12:17.043Z,99.9
2022-12-07T01:14:22.529Z,99.9
2022-12-07T01:16:20.204Z,99.9
2022-12-07T01:18:17.602Z,99.9
2022-12-07T01:20:15.164Z,99.9
2022-12-07T01:24:10.259Z,99.9
2022-12-07T01:26:07.814Z,99.9
2022-12-07T01:28:13.224Z,99.9
2022-12-07T01:30:10.800Z,99.9
2022-12-07T01:32:08.329Z,99.9
2022-12-07T01:34:35.253Z,99.9
2022-12-07T01:36:32.803Z,99.9
2022-12-07T01:38:30.324Z,99.9
2022-12-07T01:40:37.287Z,99.9
2022-12-07T01:42:34.832Z,99.9
2022-12-07T01:44:32.400Z,99.9
2022-12-07T01:46:29.969Z,99.9
2022-12-07T01:48:27.479Z,99.9
2022-12-07T01:50:25.035Z,99.9
2022-12-07T01:52:22.556Z,99.9
2022-12-07T01:54:28.026Z,99.9
2022-12-07T01:56:25.559Z,99.9
2022-12-07T01:58:23.088Z,99.9
2022-12-07T02:00:20.663Z,99.9
2022-12-07T02:02:18.262Z,99.9
2022-12-07T02:06:13.303Z,99.9
2022-12-07T02:08:18.838Z,99.9
2022-12-07T02:12:13.812Z,99.9
2022-12-07T02:14:11.363Z,99.9
2022-12-07T02:16:08.981Z,99.9
2022-12-07T02:22:09.444Z,99.9
2022-12-07T02:24:06.982Z,99.9
2022-12-07T02:26:04.521Z,99.9
2022-12-07T02:27:07.237Z,99.9
2022-12-07T02:29:04.795Z,99.9
2022-12-07T02:31:02.475Z,99.9
2022-12-07T02:32:59.887Z,99.9
2022-12-07T02:35:05.321Z,99.9
2022-12-07T02:37:02.876Z,99.9
2022-12-07T02:39:00.433Z,99.9
2022-12-07T02:40:57.960Z,99.9
2022-12-07T02:46:50.674Z,99.9
2022-12-07T02:48:56.069Z,99.9
2022-12-07T02:50:53.650Z,99.9
2022-12-07T02:52:51.199Z,99.9
2022-12-07T02:56:46.276Z,99.9
2022-12-07T02:58:43.845Z,99.9
2022-12-07T03:00:41.402Z,99.9
2022-12-07T03:02:46.914Z,99.9
2022-12-07T03:04:44.399Z,99.9
2022-12-07T03:06:41.953Z,99.9
2022-12-07T03:08:39.511Z,99.9
2022-12-07T03:10:37.086Z,99.9
2022-12-07T03:12:34.634Z,99.9
2022-12-07T03:16:37.635Z,99.9
2022-12-07T03:18:35.190Z,99.9
2022-12-07T03:20:32.772Z,99.9
2022-12-07T03:21:35.495Z,99.9
2022-12-07T03:25:30.604Z,99.9
2022-12-07T03:27:28.188Z,99.9
2022-12-07T03:29:33.600Z,99.9
2022-12-07T03:31:31.270Z,99.9
2022-12-07T03:33:28.693Z,99.9
2022-12-07T03:35:26.270Z,99.9
2022-12-07T03:37:23.800Z,99.9
2022-12-07T03:39:21.359Z,99.9
2022-12-07T03:41:18.922Z,99.9
2022-12-07T03:43:24.368Z,99.9
2022-12-07T03:45:21.898Z,99.9
2022-12-07T03:53:12.168Z,99.9
2022-12-07T03:55:09.712Z,99.9
2022-12-07T03:57:15.143Z,99.9
2022-12-07T03:59:12.712Z,99.9
2022-12-07T04:01:10.273Z,99.9
2022-12-07T04:03:07.914Z,99.9
2022-12-07T04:05:05.377Z,99.9
2022-12-07T04:07:02.895Z,99.9
2022-12-07T04:09:00.472Z,99.9
2022-12-07T04:11:05.905Z,99.9
2022-12-07T04:13:03.447Z,99.9
2022-12-07T04:15:01.002Z,99.9
2022-12-07T04:16:03.797Z,99.9
2022-12-07T04:18:01.283Z,99.9
2022-12-07T04:24:01.823Z,99.9
2022-12-07T04:25:59.399Z,99.9
2022-12-07T04:27:56.939Z,99.9
2022-12-07T04:29:54.540Z,99.9
2022-12-07T04:31:52.148Z,99.9
2022-12-07T04:33:49.653Z,99.9
2022-12-07T04:35:47.172Z,99.9
2022-12-07T04:37:52.604Z,99.9
2022-12-07T04:39:50.139Z,99.9
2022-12-07T04:41:47.686Z,99.9
2022-12-07T04:43:45.243Z,99.9
2022-12-07T04:45:42.790Z,99.9
2022-12-07T04:47:40.346Z,99.9
2022-12-07T04:49:37.889Z,99.9
2022-12-07T04:51:43.307Z,99.9
2022-12-07T04:53:40.844Z,99.9
2022-12-07T04:59:33.462Z,99.9
2022-12-07T05:01:31.003Z,99.9
2022-12-07T05:03:28.544Z,99.9
2022-12-07T05:05:33.943Z,99.9
2022-12-07T05:07:31.509Z,99.9
2022-12-07T05:09:29.030Z,99.9
2022-12-07T05:11:51.742Z,99.9
2022-12-07T05:13:49.275Z,99.9
2022-12-07T05:17:52.218Z,99.9
2022-12-07T05:19:49.769Z,99.9
2022-12-07T05:21:47.272Z,99.9
2022-12-07T05:23:44.799Z,99.9
2022-12-07T05:25:42.308Z,99.9
2022-12-07T05:33:40.389Z,99.9
2022-12-07T05:35:37.897Z,99.9
2022-12-07T05:37:35.461Z,99.9
2022-12-07T05:39:32.983Z,99.9
2022-12-07T05:41:30.503Z,99.9
2022-12-07T05:43:28.014Z,99.9
2022-12-07T05:45:33.510Z,99.9
2022-12-07T05:47:30.980Z,99.9
2022-12-07T05:49:28.498Z,99.9
2022-12-07T05:51:26.025Z,99.9
2022-12-07T05:53:23.647Z,99.9
2022-12-07T05:55:21.098Z,99.9
2022-12-07T06:01:21.583Z,99.9
2022-12-07T06:03:19.263Z,99.9
2022-12-07T06:04:21.815Z,99.9
2022-12-07T06:06:19.415Z,99.9
2022-12-07T06:08:16.924Z,99.9
2022-12-07T06:10:14.391Z,99.9
2022-12-07T06:14:17.329Z,99.9
2022-12-07T06:16:14.947Z,99.9
2022-12-07T06:18:12.404Z,99.9
2022-12-07T06:20:09.949Z,99.9
2022-12-07T06:22:07.450Z,99.9
2022-12-07T06:24:04.969Z,99.9
2022-12-07T06:26:10.416Z,99.9
2022-12-07T06:34:00.479Z,99.9
2022-12-07T06:37:55.541Z,99.9
2022-12-07T06:40:01.159Z,99.9
2022-12-07T06:43:56.486Z,99.9
2022-12-07T06:45:53.588Z,99.9
2022-12-07T06:47:51.062Z,99.9
2022-12-07T06:55:49.012Z,99.9
2022-12-07T06:58:49.257Z,99.9
2022-12-07T07:00:46.809Z,99.9
2022-12-07T07:02:44.320Z,99.9
2022-12-07T07:04:41.748Z,99.9
2022-12-07T07:06:47.229Z,99.9
2022-12-07T07:08:44.744Z,99.9
2022-12-07T07:10:42.203Z,99.9
2022-12-07T07:12:39.721Z,99.9
2022-12-07T07:16:34.830Z,99.9
2022-12-07T07:20:39.225Z,99.9
2022-12-07T07:22:36.704Z,99.9
2022-12-07T07:26:31.753Z,99.9
2022-12-07T07:28:29.241Z,99.9
2022-12-07T07:30:26.856Z,99.9
2022-12-07T07:32:24.277Z,99.9
2022-12-07T07:34:29.681Z,99.9
2022-12-07T07:36:27.209Z,99.9
2022-12-07T07:38:24.739Z,99.9
2022-12-07T07:40:22.322Z,99.9
2022-12-07T07:42:19.850Z,99.9
2022-12-07T07:44:17.373Z,99.9
2022-12-07T07:46:15.027Z,99.9
2022-12-07T07:48:20.381Z,99.9
2022-12-07T07:50:17.893Z,99.9
2022-12-07T07:52:15.439Z,99.9
2022-12-07T07:53:18.131Z,99.9
2022-12-07T07:55:16.686Z,99.9
2022-12-07T07:59:10.711Z,99.9
2022-12-07T08:01:16.216Z,99.9
2022-12-07T08:03:13.618Z,99.9
2022-12-07T08:09:06.198Z,99.9
2022-12-07T08:11:03.718Z,99.9
2022-12-07T08:13:01.258Z,99.9
2022-12-07T08:15:06.666Z,99.9
2022-12-07T08:19:01.686Z,99.9
2022-12-07T08:20:59.196Z,99.9
2022-12-07T08:22:56.730Z,99.9
2022-12-07T08:24:54.259Z,99.9
2022-12-07T08:26:51.798Z,99.9
2022-12-07T08:28:57.187Z,99.9
2022-12-07T08:30:54.761Z,99.9
2022-12-07T08:34:49.782Z,99.9
2022-12-07T08:39:01.434Z,99.9
2022-12-07T08:42:47.727Z,99.9
2022-12-07T08:44:45.264Z,99.9
2022-12-07T08:46:42.806Z,99.9
2022-12-07T08:48:59.978Z,99.9
2022-12-07T08:50:57.526Z,99.9
2022-12-07T08:52:55.043Z,99.9
2022-12-07T08:55:00.460Z,99.9
2022-12-07T08:56:59.713Z,99.9
2022-12-07T08:58:55.518Z,99.9
2022-12-07T09:00:53.021Z,99.9
2022-12-07T09:02:50.569Z,99.9
2022-12-07T09:04:48.098Z,99.9
2022-12-07T09:06:45.861Z,99.9
2022-12-07T09:08:51.050Z,99.9
2022-12-07T09:10:48.544Z,99.9
2022-12-07T09:12:46.106Z,99.9
2022-12-07T09:14:43.639Z,99.9
2022-12-07T09:16:41.317Z,99.9
2022-12-07T09:28:34.233Z,99.9
2022-12-07T09:30:31.761Z,99.9
2022-12-07T09:32:29.371Z,99.9
2022-12-07T09:34:26.904Z,99.9
2022-12-07T09:36:32.262Z,99.9
2022-12-07T09:38:29.764Z,99.9
2022-12-07T09:40:27.318Z,99.9
2022-12-07T09:41:30.021Z,99.9
2022-12-07T09:43:27.536Z,99.9
2022-12-07T09:45:25.069Z,99.9
2022-12-07T09:49:28.010Z,99.9
2022-12-07T09:51:26.131Z,99.9
2022-12-07T09:55:20.604Z,99.9
2022-12-07T09:57:18.130Z,99.9
2022-12-07T09:59:15.743Z,99.9
2022-12-07T10:01:13.334Z,99.9
2022-12-07T10:03:18.671Z,99.9
2022-12-07T10:05:22.088Z,99.9
2022-12-07T10:07:13.713Z,99.9
2022-12-07T10:09:11.275Z,99.9
2022-12-07T10:11:08.787Z,99.9
2022-12-07T10:13:06.329Z,99.9
2022-12-07T10:15:08.178Z,99.9
2022-12-07T10:19:06.847Z,99.9
2022-12-07T10:21:04.385Z,99.9
2022-12-07T10:28:54.601Z,99.7
2022-12-07T10:31:00.354Z,93.1
2022-12-07T10:32:57.626Z,92
2022-12-07T10:35:57.937Z,88.2
2022-12-07T10:37:55.452Z,87.5
2022-12-07T10:39:53.009Z,92.3
2022-12-07T10:43:56.020Z,98.6
2022-12-07T10:46:03.775Z,98.8
2022-12-07T10:49:48.686Z,99.6
2022-12-07T10:51:46.276Z,99.6
2022-12-07T10:53:43.851Z,99.9
2022-12-07T10:57:46.888Z,99.9
2022-12-07T10:59:44.444Z,99.8
2022-12-07T11:01:42.079Z,99.6
2022-12-07T11:03:39.602Z,99.4
2022-12-07T11:05:37.149Z,99.3
2022-12-07T11:07:34.779Z,99.3
2022-12-07T11:10:06.192Z,99.3
2022-12-07T11:11:37.781Z,98.7
2022-12-07T11:13:35.358Z,97.1
2022-12-07T11:15:32.920Z,94.7
2022-12-07T11:17:30.478Z,90.8
2022-12-07T11:19:28.645Z,90.4
2022-12-07T11:21:25.650Z,90.9
2022-12-07T11:23:23.259Z,93
2022-12-07T11:25:29.176Z,93.4
2022-12-07T11:27:26.282Z,93.5
2022-12-07T11:29:23.860Z,93.6
2022-12-07T11:30:26.624Z,92.9
2022-12-07T11:32:24.212Z,90.8
2022-12-07T11:34:21.793Z,83.1
2022-12-07T11:36:19.358Z,82.7
2022-12-07T11:38:28.191Z,82.9
2022-12-07T11:40:22.433Z,86.2
2022-12-07T11:42:20.062Z,90.2
2022-12-07T11:44:19.667Z,92.5
2022-12-07T11:46:15.350Z,94.1
2022-12-07T11:48:12.858Z,95.6
2022-12-07T11:50:10.472Z,92.1
2022-12-07T11:52:15.977Z,93.3
2022-12-07T11:54:14.419Z,94.1
2022-12-07T12:02:04.884Z,96.4
2022-12-07T12:04:02.374Z,96.6
2022-12-07T12:06:07.892Z,95.2
2022-12-07T12:10:03.382Z,85.5
2022-12-07T12:15:55.897Z,71.5
2022-12-07T12:17:53.507Z,78.1
2022-12-07T12:19:59.000Z,84.4
2022-12-07T12:21:58.366Z,88.6
2022-12-07T12:23:54.229Z,90.6
2022-12-07T12:26:21.234Z,92.7
2022-12-07T12:28:18.728Z,93.4
2022-12-07T12:30:16.361Z,93.8
2022-12-07T12:34:19.422Z,95.6
2022-12-07T12:36:17.170Z,95.8
2022-12-07T12:38:14.677Z,96
2022-12-07T12:40:12.280Z,96.4
2022-12-07T12:42:09.870Z,96.5
2022-12-07T12:54:03.565Z,96.9
2022-12-07T12:57:58.725Z,96.7
2022-12-07T13:00:04.169Z,96.3
2022-12-07T13:02:03.387Z,96.1
2022-12-07T13:04:00.876Z,95.9
2022-12-07T13:05:58.469Z,95.9
2022-12-07T13:07:56.193Z,96
2022-12-07T13:09:53.674Z,96.2
2022-12-07T13:11:51.255Z,96.4
2022-12-07T13:13:56.755Z,97
2022-12-07T13:15:54.352Z,97.1
2022-12-07T13:17:51.948Z,97.2
2022-12-07T13:18:54.713Z,97.3
2022-12-07T13:20:52.327Z,97.3
2022-12-07T13:22:49.916Z,97.2
2022-12-07T13:24:47.492Z,97.1
2022-12-07T13:26:52.994Z,97.1
2022-12-07T13:28:50.564Z,97
2022-12-07T13:30:48.173Z,97
2022-12-07T13:32:45.789Z,96.9
2022-12-07T13:36:40.959Z,96.8
2022-12-07T13:38:38.539Z,96.8
2022-12-07T13:40:44.038Z,96.8
2022-12-07T13:42:41.621Z,96.8
2022-12-07T13:44:42.223Z,96.9
2022-12-07T13:46:36.839Z,97
2022-12-07T13:48:34.416Z,97.1
2022-12-07T13:50:31.991Z,97.2
2022-12-07T13:52:29.598Z,97.3
2022-12-07T13:54:35.085Z,97.7
2022-12-07T13:58:30.243Z,98
2022-12-07T14:02:29.416Z,98
2022-12-07T14:04:23.045Z,97.9
2022-12-07T14:06:20.631Z,97.6
2022-12-07T14:08:26.226Z,97.3
2022-12-07T14:10:23.750Z,97.2
2022-12-07T14:12:21.348Z,97.1
2022-12-07T14:13:24.085Z,97.1
2022-12-07T14:17:19.286Z,97.2
2022-12-07T14:19:16.886Z,97.2
2022-12-07T14:21:22.411Z,97.2
2022-12-07T14:23:20.034Z,97.2
2022-12-07T14:25:17.625Z,97.3
2022-12-07T14:27:15.218Z,97.5
2022-12-07T14:29:12.839Z,98.2
2022-12-07T14:31:10.618Z,98.6
2022-12-07T14:33:08.017Z,99
2022-12-07T14:35:13.477Z,99.6
2022-12-07T14:37:11.061Z,99.9
2022-12-07T14:39:13.064Z,99.9
2022-12-07T14:41:06.231Z,99.9
2022-12-07T14:43:03.829Z,99.9
2022-12-07T14:45:01.765Z,99.9
2022-12-07T14:49:33.774Z,99.9
2022-12-07T14:54:57.226Z,99.9
2022-12-07T15:00:49.969Z,99.9
2022-12-07T15:02:55.446Z,99.9
2022-12-07T15:06:50.617Z,99.9
2022-12-07T15:07:53.396Z,99.9
2022-12-07T15:09:50.918Z,99.9
2022-12-07T15:11:48.526Z,99.9
2022-12-07T15:13:46.062Z,99.9
2022-12-07T15:19:46.691Z,99.9
2022-12-07T15:21:44.282Z,99.9
2022-12-07T15:23:41.825Z,99.9
2022-12-07T15:25:39.418Z,99.9
2022-12-07T15:27:36.979Z,99.9
2022-12-07T15:29:42.476Z,99.9
2022-12-07T15:31:55.194Z,99.9
2022-12-07T15:33:37.621Z,99.9
2022-12-07T15:35:35.202Z,99.9
2022-12-07T15:37:32.794Z,99.9
2022-12-07T15:39:30.361Z,99.9
2022-12-07T15:41:27.933Z,99.9
2022-12-07T15:43:33.411Z,99.9
2022-12-07T15:45:30.979Z,99.9
2022-12-07T15:47:28.551Z,99.9
2022-12-07T15:49:26.105Z,99.9
2022-12-07T15:53:21.238Z,99.9
2022-12-07T15:55:18.816Z,99.9
2022-12-07T15:59:21.879Z,99.9
2022-12-07T16:01:19.499Z,99.9
2022-12-07T16:03:46.374Z,99.9
2022-12-07T16:09:47.035Z,99.9
2022-12-07T16:11:45.469Z,99.9
2022-12-07T16:13:43.032Z,99.9
2022-12-07T16:15:40.688Z,99.9
2022-12-07T16:17:38.170Z,99.9
2022-12-07T16:19:35.707Z,99.9
2022-12-07T16:21:33.293Z,99.9
2022-12-07T16:23:38.757Z,99.9
2022-12-07T16:25:36.347Z,99.9
2022-12-07T16:27:33.906Z,99.9
2022-12-07T16:29:31.463Z,99.9
2022-12-07T16:31:29.091Z,99.9
2022-12-07T16:33:26.611Z,99.9
2022-12-07T16:35:24.522Z,99.9
2022-12-07T16:37:30.018Z,99.9
2022-12-07T16:39:27.555Z,99.9
2022-12-07T16:41:25.243Z,99.9
2022-12-07T16:43:22.820Z,99.9
2022-12-07T16:45:21.181Z,99.9
2022-12-07T16:47:17.955Z,99.9
2022-12-07T16:49:15.530Z,99.9
2022-12-07T16:51:20.950Z,99.9
2022-12-07T16:53:18.540Z,99.9
2022-12-07T16:55:16.130Z,99.9
2022-12-07T16:56:18.810Z,99.9
2022-12-07T17:00:13.941Z,99.9
2022-12-07T17:04:17.044Z,99.9
2022-12-07T17:06:14.535Z,99.9
2022-12-07T17:08:12.178Z,99.9
2022-12-07T17:10:09.662Z,99.9
2022-12-07T17:12:07.213Z,99.9
2022-12-07T17:14:04.760Z,99.9
2022-12-07T17:16:02.356Z,99.9
2022-12-07T17:18:07.778Z,99.9
2022-12-07T17:22:02.933Z,99.9
2022-12-07T17:24:00.454Z,99.9
2022-12-07T17:25:58.009Z,99.9
2022-12-07T17:27:55.575Z,99.9
2022-12-07T17:29:53.129Z,99.9
2022-12-07T17:31:58.684Z,99.9
2022-12-07T17:33:56.169Z,99.9
2022-12-07T17:35:53.731Z,99.9
2022-12-07T17:37:51.382Z,99.9
2022-12-07T17:39:48.873Z,99.9
2022-12-07T17:41:46.436Z,99.9
2022-12-07T17:45:49.417Z,99.9
2022-12-07T17:49:44.532Z,99.9
2022-12-07T17:50:47.263Z,99.9
2022-12-07T17:54:42.328Z,99.9
2022-12-07T17:56:39.914Z,99.9
2022-12-07T17:58:45.377Z,99.9
2022-12-07T18:00:42.997Z,99.9
2022-12-07T18:02:40.546Z,99.9
2022-12-07T18:04:38.052Z,99.9
2022-12-07T18:06:35.622Z,99.9
2022-12-07T18:12:36.181Z,99.9
2022-12-07T18:18:28.888Z,99.9
2022-12-07T18:20:26.474Z,99.9
2022-12-07T18:22:23.994Z,99.9
2022-12-07T18:24:21.519Z,99.9
2022-12-07T18:26:27.031Z,99.9
2022-12-07T18:28:24.595Z,99.9
2022-12-07T18:34:17.274Z,99.9
2022-12-07T18:36:14.838Z,99.9
2022-12-07T18:38:12.380Z,99.9
2022-12-07T18:40:17.824Z,99.9
2022-12-07T18:42:15.374Z,99.9
2022-12-07T18:44:14.506Z,99.9
2022-12-07T18:45:17.168Z,99.9
2022-12-07T18:47:14.724Z,99.9
2022-12-07T18:49:12.253Z,99.9
2022-12-07T18:53:15.296Z,99.9
2022-12-07T18:57:10.386Z,99.9
2022-12-07T18:59:07.933Z,99.9
2022-12-07T19:01:05.528Z,99.9
2022-12-07T19:05:00.846Z,99.9
2022-12-07T19:07:06.035Z,99.9
2022-12-07T19:11:01.140Z,99.9
2022-12-07T19:12:58.721Z,99.9
2022-12-07T19:14:56.276Z,99.9
2022-12-07T19:16:53.850Z,99.9
2022-12-07T19:18:51.626Z,99.9
2022-12-07T19:20:56.791Z,99.9
2022-12-07T19:22:54.377Z,99.9
2022-12-07T19:24:51.926Z,99.9
2022-12-07T19:26:49.483Z,99.9
2022-12-07T19:28:47.100Z,99.9
2022-12-07T19:30:44.574Z,99.9
2022-12-07T19:32:42.153Z,99.9
2022-12-07T19:34:47.612Z,99.9
2022-12-07T19:36:45.170Z,99.9
2022-12-07T19:38:42.698Z,99.9
2022-12-07T19:43:07.163Z,99.9
2022-12-07T19:45:05.332Z,99.9
2022-12-07T19:47:10.132Z,99.9
2022-12-07T19:49:07.690Z,99.9
2022-12-07T19:51:05.245Z,99.9
2022-12-07T19:53:02.804Z,99.9
2022-12-07T19:55:00.859Z,99.9
2022-12-07T19:56:58.556Z,99.9
2022-12-07T19:58:55.478Z,99.9
2022-12-07T20:01:00.963Z,99.9
2022-12-07T20:02:58.500Z,99.9
2022-12-07T20:04:56.043Z,99.9
2022-12-07T20:06:53.580Z,99.9
2022-12-07T20:08:51.141Z,99.9
2022-12-07T20:10:48.704Z,99.9
2022-12-07T20:12:46.237Z,99.9
2022-12-07T20:14:51.716Z,99.9
2022-12-07T20:16:49.347Z,99.9
2022-12-07T20:18:46.807Z,99.9
2022-12-07T20:20:44.354Z,99.9
2022-12-07T20:22:41.967Z,99.9
2022-12-07T20:24:39.494Z,99.9
2022-12-07T20:26:37.051Z,99.9
2022-12-07T20:28:42.469Z,99.9
2022-12-07T20:30:40.112Z,99.9
2022-12-07T20:32:37.603Z,99.9
2022-12-07T20:33:40.316Z,99.9
2022-12-07T20:35:37.889Z,99.9
2022-12-07T20:37:35.455Z,99.9
2022-12-07T20:39:33.006Z,99.9
2022-12-07T20:41:38.456Z,99.9
2022-12-07T20:43:36.016Z,99.9
2022-12-07T20:45:33.582Z,99.9
2022-12-07T20:47:31.117Z,99.9
2022-12-07T20:49:28.686Z,99.9
2022-12-07T20:51:26.248Z,99.9
2022-12-07T20:53:23.772Z,99.9
2022-12-07T20:55:29.223Z,99.9
2022-12-07T20:57:26.779Z,99.9
2022-12-07T20:59:24.326Z,99.9
2022-12-07T21:01:21.967Z,99.9
2022-12-07T21:03:19.428Z,99.9
2022-12-07T21:05:16.979Z,99.9
2022-12-07T21:07:14.528Z,99.9
2022-12-07T21:09:19.976Z,99.9
2022-12-07T21:11:17.534Z,99.9
2022-12-07T21:13:15.126Z,99.9
2022-12-07T21:15:12.634Z,99.9
2022-12-07T21:17:10.180Z,99.9
2022-12-07T21:19:07.770Z,99.9
2022-12-07T21:21:05.288Z,99.9
2022-12-07T21:23:10.708Z,99.9
2022-12-07T21:27:05.809Z,99.9
2022-12-07T21:28:08.532Z,99.9
2022-12-07T21:30:06.085Z,99.9
2022-12-07T21:32:03.721Z,99.9
2022-12-07T21:34:01.174Z,99.9
2022-12-07T21:36:06.590Z,99.9
2022-12-07T21:38:04.170Z,99.9
2022-12-07T21:40:01.696Z,99.9
2022-12-07T21:41:59.275Z,99.9
2022-12-07T21:43:56.787Z,99.9
2022-12-07T21:45:54.421Z,99.9
2022-12-07T21:47:51.871Z,99.9
2022-12-07T21:49:57.308Z,99.9
2022-12-07T21:51:54.855Z,99.9
2022-12-07T21:53:52.410Z,99.9
2022-12-07T21:55:49.953Z,99.9
2022-12-07T21:57:47.496Z,99.9
2022-12-07T22:03:48.036Z,99.9
2022-12-07T22:05:45.580Z,99.9
2022-12-07T22:07:43.177Z,99.9
2022-12-07T22:09:40.668Z,99.9
2022-12-07T22:11:38.229Z,99.9
2022-12-07T22:13:35.749Z,99.9
2022-12-07T22:15:33.293Z,99.9
2022-12-07T22:17:38.710Z,99.9
2022-12-07T22:19:36.276Z,99.9
2022-12-07T22:21:33.794Z,99.9
2022-12-07T22:22:36.499Z,99.9
2022-12-07T22:24:34.016Z,99.9
2022-12-07T22:26:31.564Z,99.9
2022-12-07T22:28:29.123Z,99.9
2022-12-07T22:34:29.630Z,99.9
2022-12-07T22:36:27.154Z,99.9
2022-12-07T22:38:24.704Z,99.9
2022-12-07T22:40:22.243Z,99.9
2022-12-07T22:42:19.778Z,99.9
2022-12-07T22:44:25.203Z,99.9
2022-12-07T22:46:22.766Z,99.9
2022-12-07T22:48:20.261Z,99.9
2022-12-07T22:50:17.800Z,99.9
2022-12-07T22:52:15.312Z,99.9
2022-12-07T22:54:12.854Z,99.9
2022-12-07T22:58:15.784Z,99.9
2022-12-07T23:02:10.813Z,99.9
2022-12-07T23:04:08.402Z,99.9
2022-12-07T23:06:05.897Z,99.9
2022-12-07T23:10:00.993Z,99.9
2022-12-07T23:12:06.383Z,99.9
2022-12-07T23:14:03.906Z,99.9
2022-12-07T23:16:01.515Z,99.9
2022-12-07T23:18:22.140Z,99.9
2022-12-07T23:22:17.185Z,99.9
2022-12-07T23:26:20.122Z,99.9
2022-12-07T23:28:17.643Z,99.9
2022-12-07T23:30:15.175Z,99.9
2022-12-07T23:32:12.687Z,99.9
2022-12-07T23:34:10.246Z,99.9
2022-12-07T23:36:07.757Z,99.9
2022-12-07T23:38:13.174Z,99.9
2022-12-07T23:40:10.691Z,99.9
2022-12-07T23:42:08.172Z,99.9
2022-12-07T23:44:05.702Z,99.9
2022-12-07T23:46:03.232Z,99.9
2022-12-07T23:48:00.739Z,99.9
2022-12-07T23:49:58.268Z,99.9
2022-12-07T23:52:03.694Z,99.9
2022-12-07T23:54:01.213Z,99.9
2022-12-07T23:55:58.728Z,99.9
2022-12-07T23:57:56.239Z,99.9
